Sharp Park, California
Current Conditions -  °F | °C
As of 12:56 PM on Monday 22 Dec 2014 (Local Time) from KSFO Reporting Station
Few Clouds Few Clouds  
Wind Chill: 58°   Ceiling: Unl
Heat Index: 58°   Visibility: 9mi
Dew Point: 58°   Wind: 0mph
Humidity: 100%   Direction: NA
Pressure: 30.22"   Gusts: NA
Location:  37.6009°N, 122.483°W
Report Text: KSFO 222056Z 00000KT 9SM FEW001 14/14 A3022 RMK AO2 SLP234 VIS E 5 T01440144 58025
Loading
Personal Weather Stations






























Interactive Weather Map New forecast layout! Learn more

10-Day Weather Forecast

Advertisements
Track Severe Weather on mobile